createdAt,value
2024-05-09T00:04:04.434Z,12.53
2024-05-09T00:09:09.197Z,12.59
2024-05-09T00:14:13.986Z,12.52
2024-05-09T00:19:18.859Z,12.55
2024-05-09T00:24:23.741Z,12.57
2024-05-09T00:29:28.640Z,12.59
2024-05-09T00:34:33.544Z,12.54
2024-05-09T00:39:38.222Z,12.47
2024-05-09T00:44:42.951Z,12.41
2024-05-09T00:49:49.092Z,12.37
2024-05-09T00:54:54.060Z,12.51
2024-05-09T00:59:59.303Z,12.59
2024-05-09T01:05:05.082Z,12.59
2024-05-09T01:10:14.319Z,12.61
2024-05-09T01:15:25.735Z,12.41
2024-05-09T01:20:39.681Z,12.47
2024-05-09T01:25:48.287Z,12.61
2024-05-09T01:30:53.042Z,12.61
2024-05-09T01:35:57.748Z,12.65
2024-05-09T01:41:02.831Z,12.59
2024-05-09T01:46:07.702Z,12.46
2024-05-09T01:51:12.961Z,12.54
2024-05-09T01:56:17.820Z,12.53
2024-05-09T02:01:22.646Z,12.47
2024-05-09T02:06:27.373Z,12.49
2024-05-09T02:11:32.223Z,12.34
2024-05-09T02:16:36.981Z,12.51
2024-05-09T02:21:41.749Z,12.52
2024-05-09T02:26:46.416Z,12.49
2024-05-09T02:31:51.189Z,12.60
2024-05-09T02:36:56.579Z,12.67
2024-05-09T02:42:01.277Z,12.60
2024-05-09T02:47:06.124Z,12.69
2024-05-09T02:52:11.011Z,12.57
2024-05-09T02:57:15.832Z,12.61
2024-05-09T03:02:20.622Z,12.63
2024-05-09T03:07:25.348Z,12.65
2024-05-09T03:12:31.353Z,12.69
2024-05-09T03:17:36.512Z,12.59
2024-05-09T03:22:41.360Z,12.62
2024-05-09T03:27:46.047Z,12.54
2024-05-09T03:32:50.904Z,12.60
2024-05-09T03:37:55.731Z,12.59
2024-05-09T03:43:00.444Z,12.68
2024-05-09T03:48:05.341Z,12.57
2024-05-09T03:53:13.755Z,12.60
2024-05-09T03:58:19.229Z,12.77
2024-05-09T04:03:24.173Z,12.76
2024-05-09T04:08:30.583Z,12.80
2024-05-09T04:13:35.420Z,12.87
2024-05-09T04:18:41.032Z,12.84
2024-05-09T04:23:45.842Z,12.97
2024-05-09T04:28:50.609Z,13.02
2024-05-09T04:33:55.457Z,13.05
2024-05-09T04:39:00.314Z,13.12
2024-05-09T04:44:05.062Z,13.13
2024-05-09T04:49:09.967Z,13.14
2024-05-09T04:54:26.071Z,13.20
2024-05-09T04:59:39.186Z,13.32
2024-05-09T05:04:43.995Z,13.36
2024-05-09T05:09:48.798Z,13.25
2024-05-09T05:14:53.504Z,13.24
2024-05-09T05:19:58.806Z,13.40
2024-05-09T05:25:03.511Z,13.44
2024-05-09T05:30:14.670Z,13.33
2024-05-09T05:35:22.618Z,13.20
2024-05-09T05:40:33.477Z,13.36
2024-05-09T05:45:41.590Z,13.34
2024-05-09T05:50:47.139Z,13.39
2024-05-09T05:55:52.035Z,13.31
2024-05-09T06:00:56.806Z,13.30
2024-05-09T06:06:05.673Z,13.32
2024-05-09T06:11:10.543Z,13.19
2024-05-09T06:16:15.300Z,13.26
2024-05-09T06:21:20.280Z,13.53
2024-05-09T06:26:25.008Z,13.55
2024-05-09T06:31:29.917Z,13.46
2024-05-09T06:36:34.583Z,13.62
2024-05-09T06:41:39.281Z,13.80
2024-05-09T06:46:45.566Z,13.64
2024-05-09T06:51:50.389Z,13.57
2024-05-09T06:56:55.096Z,13.56
2024-05-09T07:01:59.839Z,13.81
2024-05-09T07:07:04.524Z,13.83
2024-05-09T07:12:09.585Z,13.82
2024-05-09T07:17:14.631Z,13.73
2024-05-09T07:22:19.411Z,13.52
2024-05-09T07:27:27.906Z,13.66
2024-05-09T07:32:32.686Z,13.61
2024-05-09T07:37:37.506Z,13.77
2024-05-09T07:42:42.283Z,13.60
2024-05-09T07:49:13.059Z,13.50
2024-05-09T07:53:37.174Z,13.60
2024-05-09T07:58:36.568Z,13.71
2024-05-09T08:03:41.630Z,13.79
2024-05-09T08:08:48.465Z,13.93
2024-05-09T08:13:53.147Z,13.93
2024-05-09T08:18:58.142Z,14.00
2024-05-09T08:24:02.952Z,14.03
2024-05-09T08:29:07.672Z,14.09
2024-05-09T08:34:12.608Z,14.23
2024-05-09T08:39:17.368Z,14.19
2024-05-09T08:44:23.359Z,14.18
2024-05-09T08:49:29.319Z,14.44
2024-05-09T08:54:34.107Z,14.35
2024-05-09T08:59:39.324Z,14.31
2024-05-09T09:04:50.821Z,14.33
2024-05-09T09:09:55.695Z,14.26
2024-05-09T09:15:00.457Z,14.15
2024-05-09T09:20:07.072Z,14.11
2024-05-09T09:25:16.033Z,14.14
2024-05-09T09:30:34.040Z,14.13
2024-05-09T09:35:43.125Z,14.23
2024-05-09T09:40:50.054Z,14.10
2024-05-09T09:45:56.087Z,14.27
2024-05-09T09:51:01.289Z,14.21
2024-05-09T09:56:06.407Z,14.26
2024-05-09T10:01:11.198Z,14.23
2024-05-09T10:06:17.106Z,14.12
2024-05-09T10:11:23.619Z,14.00
2024-05-09T10:16:33.994Z,14.08
2024-05-09T10:21:49.552Z,13.97
2024-05-09T10:26:56.114Z,14.02
2024-05-09T10:32:02.710Z,14.10
2024-05-09T10:37:07.516Z,14.02
2024-05-09T10:42:12.875Z,14.05
2024-05-09T10:47:18.615Z,14.18
2024-05-09T10:52:24.093Z,14.16
2024-05-09T10:57:28.902Z,14.15
2024-05-09T11:02:34.724Z,13.94
2024-05-09T11:07:39.701Z,13.84
2024-05-09T11:12:47.766Z,13.84
2024-05-09T11:17:52.621Z,13.52
2024-05-09T11:22:57.447Z,13.42
2024-05-09T11:28:03.575Z,13.13
2024-05-09T11:33:08.725Z,13.01
2024-05-09T11:38:13.490Z,12.99
2024-05-09T11:43:21.202Z,13.08
2024-05-09T11:48:27.404Z,13.15
2024-05-09T11:53:32.413Z,13.26
2024-05-09T11:58:39.504Z,12.99
2024-05-09T12:03:44.417Z,13.15
2024-05-09T12:08:49.563Z,13.08
2024-05-09T12:13:54.264Z,13.05
2024-05-09T12:18:59.296Z,12.96
2024-05-09T12:24:04.161Z,12.94
2024-05-09T12:29:08.930Z,12.93
2024-05-09T12:34:13.747Z,13.01
2024-05-09T12:39:18.614Z,13.04
2024-05-09T12:44:23.474Z,13.16
2024-05-09T12:49:28.398Z,13.07
2024-05-09T12:54:33.773Z,12.96
2024-05-09T12:59:38.569Z,12.96
2024-05-09T13:04:43.330Z,12.96
2024-05-09T13:09:48.158Z,12.96
2024-05-09T13:14:52.856Z,12.89
2024-05-09T13:19:57.729Z,12.87
2024-05-09T13:25:02.478Z,13.00
2024-05-09T13:30:14.542Z,12.97
2024-05-09T13:35:22.570Z,13.07
2024-05-09T13:40:33.082Z,13.08
2024-05-09T13:45:40.371Z,13.09
2024-05-09T13:50:45.344Z,13.18
2024-05-09T13:55:50.518Z,13.28
2024-05-09T14:00:55.392Z,13.30
2024-05-09T14:06:00.293Z,13.38
2024-05-09T14:11:05.115Z,13.40
2024-05-09T14:16:10.388Z,13.47
2024-05-09T14:21:15.206Z,13.54
2024-05-09T14:26:20.194Z,13.63
2024-05-09T14:31:25.178Z,13.56
2024-05-09T14:36:29.951Z,13.62
2024-05-09T14:41:34.626Z,13.65
2024-05-09T14:46:39.335Z,13.56
2024-05-09T14:51:50.376Z,13.52
2024-05-09T14:56:55.263Z,13.59
2024-05-09T15:02:00.093Z,13.37
2024-05-09T15:07:05.084Z,13.29
2024-05-09T15:12:10.195Z,13.25
2024-05-09T15:17:15.042Z,13.21
2024-05-09T15:22:20.555Z,13.26
2024-05-09T15:27:25.406Z,13.29
2024-05-09T15:32:30.189Z,13.13
2024-05-09T15:37:35.295Z,13.15
2024-05-09T15:42:42.730Z,13.17
2024-05-09T15:47:48.260Z,13.08
2024-05-09T15:52:53.117Z,13.20
2024-05-09T15:57:57.942Z,13.12
2024-05-09T16:03:02.697Z,13.21
2024-05-09T16:08:08.743Z,13.30
2024-05-09T16:13:16.649Z,13.31
2024-05-09T16:18:22.489Z,13.20
2024-05-09T16:23:27.283Z,13.16
2024-05-09T16:28:32.135Z,12.98
2024-05-09T16:33:37.206Z,12.97
2024-05-09T16:38:43.183Z,12.96
2024-05-09T16:43:47.942Z,13.01
2024-05-09T16:48:53.355Z,13.01
2024-05-09T16:53:58.611Z,12.95
2024-05-09T16:59:03.475Z,12.92
2024-05-09T17:04:08.506Z,12.92
2024-05-09T17:09:15.679Z,12.91
2024-05-09T17:14:24.246Z,12.97
2024-05-09T17:19:29.054Z,12.95
2024-05-09T17:24:33.895Z,12.89
2024-05-09T17:29:38.725Z,12.92
2024-05-09T17:34:43.461Z,12.78
2024-05-09T17:39:49.598Z,12.79
2024-05-09T17:44:54.330Z,12.68
2024-05-09T17:49:59.425Z,12.73
2024-05-09T17:55:04.247Z,12.72
2024-05-09T18:00:11.873Z,12.72
2024-05-09T18:05:19.730Z,12.66
2024-05-09T18:10:32.804Z,12.54
2024-05-09T18:15:42.284Z,12.63
2024-05-09T18:20:48.007Z,12.51
2024-05-09T18:25:54.812Z,12.45
2024-05-09T18:31:00.751Z,12.44
2024-05-09T18:36:05.559Z,12.41
2024-05-09T18:41:13.115Z,12.43
2024-05-09T18:46:18.492Z,12.45
2024-05-09T18:51:23.476Z,12.42
2024-05-09T18:56:28.743Z,12.42
2024-05-09T19:01:33.809Z,12.49
2024-05-09T19:06:39.051Z,12.40
2024-05-09T19:11:43.846Z,12.42
2024-05-09T19:16:49.665Z,12.39
2024-05-09T19:21:54.394Z,12.52
2024-05-09T19:26:59.139Z,12.44
2024-05-09T19:32:04.050Z,12.43
2024-05-09T19:37:09.254Z,12.44
2024-05-09T19:42:14.159Z,12.51
2024-05-09T19:47:18.986Z,12.55
2024-05-09T19:52:23.718Z,12.61
2024-05-09T19:57:28.479Z,12.70
2024-05-09T20:02:33.290Z,12.65
2024-05-09T20:07:38.099Z,12.66
2024-05-09T20:12:42.838Z,12.62
2024-05-09T20:17:47.758Z,12.66
2024-05-09T20:22:52.581Z,12.72
2024-05-09T20:27:57.400Z,12.78
2024-05-09T20:33:03.746Z,12.80
2024-05-09T20:38:09.626Z,12.70
2024-05-09T20:43:14.351Z,12.71
2024-05-09T20:48:19.136Z,12.71
2024-05-09T20:53:23.862Z,12.75
2024-05-09T20:58:29.132Z,12.74
2024-05-09T21:03:35.825Z,12.70
2024-05-09T21:08:40.612Z,12.66
2024-05-09T21:13:45.399Z,12.67
2024-05-09T21:18:50.202Z,12.64
2024-05-09T21:23:55.014Z,12.60
2024-05-09T21:28:59.745Z,12.60
2024-05-09T21:34:04.583Z,12.62
2024-05-09T21:39:09.401Z,12.62
2024-05-09T21:44:14.107Z,12.57
2024-05-09T21:49:19.450Z,12.56
2024-05-09T21:54:24.258Z,12.54
2024-05-09T21:59:29.150Z,12.50
2024-05-09T22:04:34.594Z,12.38
2024-05-09T22:09:41.075Z,12.36
2024-05-09T22:14:45.799Z,12.24
2024-05-09T22:19:52.648Z,12.17
2024-05-09T22:24:57.493Z,12.16
2024-05-09T22:30:02.836Z,12.13
2024-05-09T22:35:10.869Z,12.08
2024-05-09T22:40:24.200Z,12.10
2024-05-09T22:45:37.279Z,12.15
2024-05-09T22:50:43.560Z,12.05
2024-05-09T22:55:48.237Z,12.01
2024-05-09T23:00:53.148Z,11.93
2024-05-09T23:05:57.950Z,11.87
2024-05-09T23:11:02.760Z,11.89
2024-05-09T23:16:08.009Z,11.95
2024-05-09T23:21:12.829Z,11.88
2024-05-09T23:26:17.573Z,11.85
2024-05-09T23:31:22.241Z,11.70
2024-05-09T23:36:29.549Z,11.61
2024-05-09T23:41:34.323Z,11.62
2024-05-09T23:46:39.139Z,11.56
2024-05-09T23:51:43.933Z,11.60
2024-05-09T23:56:48.693Z,11.50
